Time,TemperatureF,DewpointF,PressureIn,WindDirection,WindDirectionDegrees,WindSpeedMPH,WindSpeedGustMPH,Humidity,HourlyPrecipIn,Conditions,Clouds,dailyrainin,SoftwareType,DateUTC
2013-02-07 00:00:00,25.5,11.2,30.27,SSW,202,3.6,8.7,54,0.00,,CLR,0.00,VWS V14.01,2013-02-07 05:00:00,
2013-02-07 00:01:00,25.5,11.6,30.30,South,180,6.0,8.7,55,0.00,,CLR,0.00,VWS V14.01,2013-02-07 05:01:00,
2013-02-07 00:05:00,25.5,11.2,30.30,South,180,5.4,8.7,54,0.00,,CLR,0.00,VWS V14.01,2013-02-07 05:05:00,
2013-02-07 00:07:00,25.7,11.4,30.30,South,180,4.3,8.7,54,0.00,,CLR,0.00,VWS V14.01,2013-02-07 05:07:00,
2013-02-07 00:13:00,25.7,11.8,30.30,SSE,158,4.9,6.9,55,0.00,,CLR,0.00,VWS V14.01,2013-02-07 05:13:00,
2013-02-07 00:18:00,25.5,11.6,30.27,SSE,158,7.4,8.5,55,0.00,,CLR,0.00,VWS V14.01,2013-02-07 05:18:00,
2013-02-07 00:23:00,25.5,11.6,30.27,SE,135,6.7,9.0,55,0.00,,CLR,0.00,VWS V14.01,2013-02-07 05:23:00,
2013-02-07 00:29:00,25.5,11.2,30.27,SE,135,7.8,9.0,54,0.00,,CLR,0.00,VWS V14.01,2013-02-07 05:29:00,
2013-02-07 00:34:00,25.5,11.6,30.27,SE,135,7.6,9.0,55,0.00,,CLR,0.00,VWS V14.01,2013-02-07 05:34:00,
2013-02-07 00:39:00,25.3,11.9,30.27,SSE,158,6.5,9.0,56,0.00,,CLR,0.00,VWS V14.01,2013-02-07 05:39:00,
2013-02-07 00:44:00,25.3,11.4,30.27,SSE,158,10.1,11.0,55,0.00,,CLR,0.00,VWS V14.01,2013-02-07 05:44:00,
2013-02-07 00:49:00,25.3,12.2,30.27,SSE,158,7.2,11.0,57,0.00,,CLR,0.00,VWS V14.01,2013-02-07 05:49:00,
2013-02-07 00:54:00,25.3,11.9,30.27,SSE,158,7.8,11.0,56,0.00,,CLR,0.00,VWS V14.01,2013-02-07 05:54:00,
2013-02-07 00:59:00,25.3,11.4,30.27,SSE,158,10.5,12.8,55,0.00,,CLR,0.00,VWS V14.01,2013-02-07 05:59:00,
2013-02-07 01:00:00,25.5,12.0,30.33,SSE,158,6.0,10.7,56,0.00,,CLR,0.00,VWS V14.01,2013-02-07 06:00:00,
2013-02-07 01:04:00,25.3,11.0,30.30,SSE,158,7.8,12.8,54,0.00,,CLR,0.00,VWS V14.01,2013-02-07 06:04:00,
2013-02-07 01:09:00,25.3,11.4,30.30,SSE,158,8.5,10.7,55,0.00,,CLR,0.00,VWS V14.01,2013-02-07 06:09:00,
2013-02-07 01:15:00,25.3,11.9,30.30,South,180,6.5,10.7,56,0.00,,CLR,0.00,VWS V14.01,2013-02-07 06:15:00,
2013-02-07 01:20:00,25.3,11.9,30.33,SSE,158,6.5,10.7,56,0.00,,CLR,0.00,VWS V14.01,2013-02-07 06:20:00,
2013-02-07 01:25:00,25.3,11.4,30.33,SSE,158,6.3,10.7,55,0.00,,CLR,0.00,VWS V14.01,2013-02-07 06:25:00,
2013-02-07 01:30:00,25.3,11.9,30.33,SSE,158,7.6,10.7,56,0.00,,CLR,0.00,VWS V14.01,2013-02-07 06:30:00,
2013-02-07 01:35:00,25.3,11.4,30.33,SSE,158,7.8,10.7,55,0.00,,CLR,0.00,VWS V14.01,2013-02-07 06:35:00,
2013-02-07 01:40:00,25.3,11.9,30.33,SSE,158,6.5,10.7,56,0.00,,CLR,0.00,VWS V14.01,2013-02-07 06:40:00,
2013-02-07 01:45:00,25.5,12.0,30.33,SSE,158,6.5,10.7,56,0.00,,CLR,0.00,VWS V14.01,2013-02-07 06:45:00,
2013-02-07 01:50:00,25.5,12.0,30.33,SSE,158,7.6,10.7,56,0.00,,CLR,0.00,VWS V14.01,2013-02-07 06:50:00,
2013-02-07 01:56:00,25.5,12.0,30.33,SSE,158,7.4,10.7,56,0.00,,CLR,0.00,VWS V14.01,2013-02-07 06:56:00,
2013-02-07 02:00:00,25.7,12.2,30.33,SSE,158,6.0,9.2,56,0.00,,CLR,0.00,VWS V14.01,2013-02-07 07:00:00,
2013-02-07 02:01:00,25.5,11.6,30.33,SSE,158,7.8,10.7,55,0.00,,CLR,0.00,VWS V14.01,2013-02-07 07:01:00,
2013-02-07 02:06:00,25.5,12.0,30.33,South,180,5.6,10.7,56,0.00,,CLR,0.00,VWS V14.01,2013-02-07 07:06:00,
2013-02-07 02:11:00,25.5,12.0,30.33,South,180,7.4,8.5,56,0.00,,CLR,0.00,VWS V14.01,2013-02-07 07:11:00,
2013-02-07 02:16:00,25.5,12.0,30.33,SE,135,6.5,8.5,56,0.00,,CLR,0.00,VWS V14.01,2013-02-07 07:16:00,
2013-02-07 02:21:00,25.5,12.0,30.33,SSE,158,5.6,8.5,56,0.00,,CLR,0.00,VWS V14.01,2013-02-07 07:21:00,
2013-02-07 02:26:00,25.5,12.8,30.33,SE,135,6.3,8.5,58,0.00,,CLR,0.00,VWS V14.01,2013-02-07 07:26:00,
2013-02-07 02:31:00,25.5,12.8,30.33,SE,135,4.0,8.5,58,0.00,,CLR,0.00,VWS V14.01,2013-02-07 07:31:00,
2013-02-07 02:36:00,25.5,12.0,30.33,SSE,158,6.3,8.5,56,0.00,,CLR,0.00,VWS V14.01,2013-02-07 07:36:00,
2013-02-07 02:42:00,25.5,12.0,30.33,SE,135,6.5,8.5,56,0.00,,CLR,0.00,VWS V14.01,2013-02-07 07:42:00,
2013-02-07 02:47:00,25.5,12.8,30.33,SSE,158,6.5,8.5,58,0.00,,CLR,0.00,VWS V14.01,2013-02-07 07:47:00,
2013-02-07 02:52:00,25.7,12.6,30.33,South,180,6.5,8.5,57,0.00,,CLR,0.00,VWS V14.01,2013-02-07 07:52:00,
2013-02-07 02:57:00,25.7,12.6,30.33,SSE,158,6.0,8.5,57,0.00,,CLR,0.00,VWS V14.01,2013-02-07 07:57:00,
2013-02-07 03:00:00,25.9,13.5,30.30,SSE,158,6.3,10.7,59,0.00,,CLR,0.00,VWS V14.01,2013-02-07 08:00:00,
2013-02-07 03:02:00,25.7,12.2,30.33,SSE,158,6.7,9.2,56,0.00,,CLR,0.00,VWS V14.01,2013-02-07 08:02:00,
2013-02-07 03:07:00,25.7,12.2,30.33,SSE,158,7.4,7.4,56,0.00,,CLR,0.00,VWS V14.01,2013-02-07 08:07:00,
2013-02-07 03:13:00,25.9,12.8,30.33,SE,135,5.6,7.4,57,0.00,,CLR,0.00,VWS V14.01,2013-02-07 08:13:00,
2013-02-07 03:18:00,25.7,12.2,30.33,SSE,158,5.4,7.4,56,0.00,,CLR,0.00,VWS V14.01,2013-02-07 08:18:00,
2013-02-07 03:23:00,25.9,12.4,30.33,SSE,158,6.5,7.8,56,0.00,,CLR,0.00,VWS V14.01,2013-02-07 08:23:00,
2013-02-07 03:28:00,25.9,12.8,30.33,South,180,8.5,8.5,57,0.00,,CLR,0.00,VWS V14.01,2013-02-07 08:28:00,
2013-02-07 03:33:00,25.9,12.8,30.33,SSE,158,8.1,9.4,57,0.00,,CLR,0.00,VWS V14.01,2013-02-07 08:33:00,
2013-02-07 03:38:00,25.9,12.8,30.33,SSE,158,6.3,9.4,57,0.00,,CLR,0.00,VWS V14.01,2013-02-07 08:38:00,
2013-02-07 03:43:00,25.9,12.8,30.33,SSE,158,6.5,10.7,57,0.00,,CLR,0.00,VWS V14.01,2013-02-07 08:43:00,
2013-02-07 03:48:00,25.9,13.1,30.33,SSE,158,7.4,10.7,58,0.00,,CLR,0.00,VWS V14.01,2013-02-07 08:48:00,
2013-02-07 03:53:00,25.9,13.5,30.33,South,180,5.8,10.7,59,0.00,,CLR,0.00,VWS V14.01,2013-02-07 08:53:00,
2013-02-07 03:59:00,25.9,13.1,30.33,SSE,158,6.0,10.7,58,0.00,,CLR,0.00,VWS V14.01,2013-02-07 08:59:00,
2013-02-07 04:00:00,25.3,14.9,30.27,SE,135,7.8,13.2,64,0.00,,CLR,0.00,VWS V14.01,2013-02-07 09:00:00,
2013-02-07 04:04:00,25.9,13.1,30.30,SSE,158,8.1,10.7,58,0.00,,CLR,0.00,VWS V14.01,2013-02-07 09:04:00,
2013-02-07 04:09:00,25.9,13.1,30.30,SSE,158,7.4,10.7,58,0.00,,CLR,0.00,VWS V14.01,2013-02-07 09:09:00,
2013-02-07 04:14:00,25.9,13.1,30.30,SE,135,7.8,10.7,58,0.00,,CLR,0.00,VWS V14.01,2013-02-07 09:14:00,
2013-02-07 04:19:00,25.9,13.9,30.27,SSE,158,5.4,10.7,60,0.00,,CLR,0.00,VWS V14.01,2013-02-07 09:19:00,
2013-02-07 04:24:00,25.9,13.5,30.27,SSE,158,8.1,10.7,59,0.00,,CLR,0.00,VWS V14.01,2013-02-07 09:24:00,
2013-02-07 04:29:00,25.9,14.3,30.27,SSE,158,7.2,10.7,61,0.00,,CLR,0.00,VWS V14.01,2013-02-07 09:29:00,
2013-02-07 04:34:00,25.9,13.9,30.27,SSE,158,6.5,12.3,60,0.00,,CLR,0.00,VWS V14.01,2013-02-07 09:34:00,
2013-02-07 04:40:00,25.9,14.3,30.27,SSE,158,7.8,12.3,61,0.00,,CLR,0.00,VWS V14.01,2013-02-07 09:40:00,
2013-02-07 04:45:00,25.9,14.3,30.27,SSE,158,11.0,13.2,61,0.00,,CLR,0.00,VWS V14.01,2013-02-07 09:45:00,
2013-02-07 04:50:00,25.7,14.1,30.27,SE,135,5.4,13.2,61,0.00,,CLR,0.00,VWS V14.01,2013-02-07 09:50:00,
2013-02-07 04:55:00,25.7,14.5,30.27,SE,135,8.5,13.2,62,0.00,,CLR,0.00,VWS V14.01,2013-02-07 09:55:00,
2013-02-07 05:00:00,25.5,14.7,30.27,SSE,158,12.1,13.2,63,0.00,,CLR,0.00,VWS V14.01,2013-02-07 10:00:00,
2013-02-07 05:05:00,25.3,14.9,30.27,SE,135,7.2,13.2,64,0.00,,CLR,0.00,VWS V14.01,2013-02-07 10:05:00,
2013-02-07 05:11:00,25.3,14.5,30.27,SSE,158,10.3,10.5,63,0.00,,CLR,0.00,VWS V14.01,2013-02-07 10:11:00,
2013-02-07 05:16:00,25.3,14.5,30.27,SE,135,6.5,10.7,63,0.00,,CLR,0.00,VWS V14.01,2013-02-07 10:16:00,
2013-02-07 05:21:00,25.3,14.9,30.27,SSE,158,8.1,10.7,64,0.00,,CLR,0.00,VWS V14.01,2013-02-07 10:21:00,
2013-02-07 05:26:00,25.5,15.1,30.27,SSE,158,8.7,10.7,64,0.00,,CLR,0.00,VWS V14.01,2013-02-07 10:26:00,
2013-02-07 05:31:00,25.5,15.1,30.27,SSE,158,8.5,11.0,64,0.00,,CLR,0.00,VWS V14.01,2013-02-07 10:31:00,
2013-02-07 05:36:00,25.7,15.6,30.27,SSE,158,6.3,11.0,65,0.00,,CLR,0.00,VWS V14.01,2013-02-07 10:36:00,
2013-02-07 05:41:00,25.9,15.0,30.27,SSE,158,7.6,12.3,63,0.00,,CLR,0.00,VWS V14.01,2013-02-07 10:41:00,
2013-02-07 05:47:00,26.1,14.8,30.27,SSE,158,9.8,12.3,62,0.00,,CLR,0.00,VWS V14.01,2013-02-07 10:47:00,
2013-02-07 05:52:00,26.1,14.8,30.27,SSE,158,10.1,12.3,62,0.00,,CLR,0.00,VWS V14.01,2013-02-07 10:52:00,
2013-02-07 05:57:00,26.1,14.8,30.27,SSE,158,6.0,12.3,62,0.00,,CLR,0.00,VWS V14.01,2013-02-07 10:57:00,
2013-02-07 06:02:00,26.1,14.5,30.24,SSE,158,8.1,12.3,61,0.00,,CLR,0.00,VWS V14.01,2013-02-07 11:02:00,
2013-02-07 06:07:00,26.1,14.5,30.24,SSE,158,6.9,12.3,61,0.00,,CLR,0.00,VWS V14.01,2013-02-07 11:07:00,
2013-02-07 06:12:00,26.1,14.8,30.24,SSE,158,6.5,8.7,62,0.00,,CLR,0.00,VWS V14.01,2013-02-07 11:12:00,
2013-02-07 06:17:00,26.1,14.1,30.27,SSE,158,7.4,10.7,60,0.00,,CLR,0.00,VWS V14.01,2013-02-07 11:17:00,
2013-02-07 06:22:00,26.1,14.5,30.27,SSE,158,7.6,10.7,61,0.00,,CLR,0.00,VWS V14.01,2013-02-07 11:22:00,
2013-02-07 06:27:00,26.2,15.0,30.27,South,180,4.0,10.7,62,0.00,,CLR,0.00,VWS V14.01,2013-02-07 11:27:00,
2013-02-07 06:33:00,26.2,14.6,30.24,SSE,158,9.8,10.7,61,0.00,,CLR,0.00,VWS V14.01,2013-02-07 11:33:00,
2013-02-07 06:38:00,26.4,15.2,30.24,South,180,7.6,12.5,62,0.00,,CLR,0.00,VWS V14.01,2013-02-07 11:38:00,
2013-02-07 06:43:00,26.4,14.8,30.24,SSE,158,9.0,13.2,61,0.00,,CLR,0.00,VWS V14.01,2013-02-07 11:43:00,
2013-02-07 06:48:00,26.6,14.6,30.27,South,180,6.3,13.2,60,0.00,,CLR,0.00,VWS V14.01,2013-02-07 11:48:00,
2013-02-07 06:53:00,26.6,14.6,30.27,SSE,158,5.6,13.2,60,0.00,,CLR,0.00,VWS V14.01,2013-02-07 11:53:00,
2013-02-07 06:58:00,26.6,14.6,30.27,South,180,6.9,13.2,60,0.00,,CLR,0.00,VWS V14.01,2013-02-07 11:58:00,
2013-02-07 07:00:00,26.8,14.8,30.24,SSE,158,6.3,13.2,60,0.00,,CLR,0.00,VWS V14.01,2013-02-07 12:00:00,
2013-02-07 07:04:00,26.6,14.2,30.27,SSW,202,3.8,13.2,59,0.00,,CLR,0.00,VWS V14.01,2013-02-07 12:04:00,
2013-02-07 07:09:00,26.6,14.2,30.27,South,180,7.8,13.2,59,0.00,,CLR,0.00,VWS V14.01,2013-02-07 12:09:00,
2013-02-07 07:14:00,26.8,14.4,30.27,SSW,202,5.8,13.2,59,0.00,,CLR,0.00,VWS V14.01,2013-02-07 12:14:00,
2013-02-07 07:19:00,26.8,14.4,30.27,South,180,4.7,13.2,59,0.00,,CLR,0.00,VWS V14.01,2013-02-07 12:19:00,
2013-02-07 07:24:00,26.8,14.4,30.27,SSE,158,4.3,13.2,59,0.00,,CLR,0.00,VWS V14.01,2013-02-07 12:24:00,
2013-02-07 07:29:00,26.6,14.6,30.27,SSE,158,6.0,13.2,60,0.00,,CLR,0.00,VWS V14.01,2013-02-07 12:29:00,
2013-02-07 07:34:00,26.8,14.8,30.24,SSE,158,6.5,13.2,60,0.00,,CLR,0.00,VWS V14.01,2013-02-07 12:34:00,
2013-02-07 07:39:00,26.6,14.6,30.24,SSE,158,5.6,13.2,60,0.00,,CLR,0.00,VWS V14.01,2013-02-07 12:39:00,
2013-02-07 07:45:00,26.6,14.6,30.24,SSE,158,7.4,13.2,60,0.00,,CLR,0.00,VWS V14.01,2013-02-07 12:45:00,
2013-02-07 07:50:00,26.6,14.2,30.24,SSE,158,6.5,13.2,59,0.00,,CLR,0.00,VWS V14.01,2013-02-07 12:50:00,
2013-02-07 07:55:00,26.8,14.4,30.24,SE,135,4.9,13.2,59,0.00,,CLR,0.00,VWS V14.01,2013-02-07 12:55:00,
2013-02-07 08:00:00,26.8,14.8,30.24,SSE,158,5.4,13.2,60,0.00,,CLR,0.00,VWS V14.01,2013-02-07 13:00:00,
2013-02-07 08:05:00,26.8,14.4,30.24,SE,135,5.4,13.2,59,0.00,,CLR,0.00,VWS V14.01,2013-02-07 13:05:00,
2013-02-07 08:10:00,26.8,14.8,30.24,SSE,158,6.5,7.8,60,0.00,,CLR,0.00,VWS V14.01,2013-02-07 13:10:00,
2013-02-07 08:15:00,27.0,14.9,30.24,SSE,158,5.8,7.8,60,0.00,,CLR,0.00,VWS V14.01,2013-02-07 13:15:00,
2013-02-07 08:20:00,27.0,14.9,30.24,SSE,158,6.7,7.8,60,0.00,,CLR,0.00,VWS V14.01,2013-02-07 13:20:00,
2013-02-07 08:25:00,27.1,14.3,30.24,SSE,158,7.2,9.8,58,0.00,,CLR,0.00,VWS V14.01,2013-02-07 13:25:00,
2013-02-07 08:31:00,27.3,14.5,30.24,SE,135,6.0,9.8,58,0.00,,CLR,0.00,VWS V14.01,2013-02-07 13:31:00,
2013-02-07 08:36:00,27.5,15.1,30.24,SSE,158,7.2,9.8,59,0.00,,CLR,0.00,VWS V14.01,2013-02-07 13:36:00,
2013-02-07 08:41:00,27.7,14.9,30.24,SSE,158,6.0,9.8,58,0.00,,CLR,0.00,VWS V14.01,2013-02-07 13:41:00,
2013-02-07 08:46:00,27.9,15.0,30.24,SSE,158,7.4,9.8,58,0.00,,CLR,0.00,VWS V14.01,2013-02-07 13:46:00,
2013-02-07 08:51:00,28.0,14.8,30.24,SSE,158,4.7,9.8,57,0.00,,CLR,0.00,VWS V14.01,2013-02-07 13:51:00,
2013-02-07 08:56:00,28.2,14.6,30.24,SSE,158,5.8,9.8,56,0.00,,CLR,0.00,VWS V14.01,2013-02-07 13:56:00,
2013-02-07 09:00:00,33.3,16.2,30.21,SE,135,5.6,8.5,49,0.00,,CLR,0.00,VWS V14.01,2013-02-07 14:00:00,
2013-02-07 09:01:00,28.4,15.5,30.21,SE,135,4.9,9.8,58,0.00,,CLR,0.00,VWS V14.01,2013-02-07 14:01:00,
2013-02-07 09:07:00,28.8,14.6,30.21,SE,135,6.3,9.8,55,0.00,,CLR,0.00,VWS V14.01,2013-02-07 14:07:00,
2013-02-07 09:12:00,29.3,15.1,30.21,SE,135,4.9,6.5,55,0.00,,CLR,0.00,VWS V14.01,2013-02-07 14:12:00,
2013-02-07 09:17:00,29.8,15.2,30.21,SE,135,6.0,6.5,54,0.00,,CLR,0.00,VWS V14.01,2013-02-07 14:17:00,
2013-02-07 09:22:00,30.4,15.3,30.21,ESE,112,4.9,6.5,53,0.00,,CLR,0.00,VWS V14.01,2013-02-07 14:22:00,
2013-02-07 09:27:00,31.1,16.0,30.21,ESE,112,5.6,6.5,53,0.00,,CLR,0.00,VWS V14.01,2013-02-07 14:27:00,
2013-02-07 09:32:00,31.1,16.0,30.21,SSE,158,4.9,7.4,53,0.00,,CLR,0.00,VWS V14.01,2013-02-07 14:32:00,
2013-02-07 09:37:00,31.5,15.4,30.21,SSE,158,5.8,7.4,51,0.00,,CLR,0.00,VWS V14.01,2013-02-07 14:37:00,
2013-02-07 09:43:00,31.6,15.6,30.21,SSE,158,4.5,7.6,51,0.00,,CLR,0.00,VWS V14.01,2013-02-07 14:43:00,
2013-02-07 09:48:00,32.0,15.9,30.21,SSE,158,3.4,7.6,51,0.00,,CLR,0.00,VWS V14.01,2013-02-07 14:48:00,
2013-02-07 09:53:00,32.9,16.8,30.21,SSE,158,4.9,7.6,51,0.00,,CLR,0.00,VWS V14.01,2013-02-07 14:53:00,
2013-02-07 09:58:00,32.9,16.3,30.21,SSE,158,4.9,8.5,50,0.00,,CLR,0.00,VWS V14.01,2013-02-07 14:58:00,
2013-02-07 10:00:00,34.2,17.0,30.21,SSE,158,4.5,12.5,49,0.00,,CLR,0.00,VWS V14.01,2013-02-07 15:00:00,
2013-02-07 10:03:00,32.9,15.9,30.21,SE,135,6.0,8.5,49,0.00,,CLR,0.00,VWS V14.01,2013-02-07 15:03:00,
2013-02-07 10:08:00,33.3,16.2,30.21,ESE,112,5.8,5.8,49,0.00,,CLR,0.00,VWS V14.01,2013-02-07 15:08:00,
2013-02-07 10:15:00,34.3,15.7,30.21,SSE,158,10.5,12.5,46,0.00,,CLR,0.00,VWS V14.01,2013-02-07 15:15:00,
2013-02-07 10:20:00,35.6,17.4,30.21,SE,135,5.4,12.5,47,0.00,,CLR,0.00,VWS V14.01,2013-02-07 15:20:00,
2013-02-07 10:26:00,35.4,16.7,30.21,SSE,158,6.0,12.5,46,0.00,,CLR,0.00,VWS V14.01,2013-02-07 15:26:00,
2013-02-07 10:31:00,35.6,16.4,30.21,SE,135,6.5,12.5,45,0.00,,CLR,0.00,VWS V14.01,2013-02-07 15:31:00,
2013-02-07 10:36:00,35.1,16.9,30.21,SE,135,6.3,12.5,47,0.00,,CLR,0.00,VWS V14.01,2013-02-07 15:36:00,
2013-02-07 10:41:00,35.1,16.9,30.21,SE,135,6.0,12.5,47,0.00,,CLR,0.00,VWS V14.01,2013-02-07 15:41:00,
2013-02-07 10:46:00,34.9,17.2,30.21,SSE,158,4.9,12.5,48,0.00,,CLR,0.00,VWS V14.01,2013-02-07 15:46:00,
2013-02-07 10:51:00,34.9,17.7,30.21,SSE,158,4.9,12.5,49,0.00,,CLR,0.00,VWS V14.01,2013-02-07 15:51:00,
2013-02-07 10:57:00,34.7,17.5,30.21,SSE,158,7.6,12.5,49,0.00,,CLR,0.00,VWS V14.01,2013-02-07 15:57:00,
2013-02-07 11:00:00,36.7,20.3,30.18,SE,135,6.0,10.1,51,0.00,,CLR,0.00,VWS V14.01,2013-02-07 16:00:00,
2013-02-07 11:02:00,34.5,17.8,30.21,SSE,158,3.6,12.5,50,0.00,,CLR,0.00,VWS V14.01,2013-02-07 16:02:00,
2013-02-07 11:07:00,34.2,17.0,30.21,SSE,158,4.5,12.5,49,0.00,,CLR,0.00,VWS V14.01,2013-02-07 16:07:00,
2013-02-07 11:12:00,34.5,18.3,30.21,SSE,158,4.9,5.8,51,0.00,,CLR,0.00,VWS V14.01,2013-02-07 16:12:00,
2013-02-07 11:17:00,34.3,18.1,30.21,SE,135,4.3,6.0,51,0.00,,CLR,0.00,VWS V14.01,2013-02-07 16:17:00,
2013-02-07 11:22:00,34.3,18.1,30.21,SSE,158,6.0,6.3,51,0.00,,CLR,0.00,VWS V14.01,2013-02-07 16:22:00,
2013-02-07 11:27:00,34.3,18.1,30.21,SE,135,4.3,10.1,51,0.00,,CLR,0.00,VWS V14.01,2013-02-07 16:27:00,
2013-02-07 11:33:00,34.5,18.3,30.21,SE,135,7.8,10.1,51,0.00,,CLR,0.00,VWS V14.01,2013-02-07 16:33:00,
2013-02-07 11:38:00,34.9,18.6,30.21,SE,135,4.0,10.1,51,0.00,,CLR,0.00,VWS V14.01,2013-02-07 16:38:00,
2013-02-07 11:43:00,35.4,19.6,30.21,SSE,158,6.0,10.1,52,0.00,,CLR,0.00,VWS V14.01,2013-02-07 16:43:00,
2013-02-07 11:48:00,36.0,19.6,30.21,SE,135,5.6,10.1,51,0.00,,CLR,0.00,VWS V14.01,2013-02-07 16:48:00,
2013-02-07 11:53:00,36.3,19.5,30.21,SSE,158,7.4,10.1,50,0.00,,CLR,0.00,VWS V14.01,2013-02-07 16:53:00,
2013-02-07 11:58:00,36.3,19.9,30.21,SSE,158,6.5,10.1,51,0.00,,CLR,0.00,VWS V14.01,2013-02-07 16:58:00,
2013-02-07 12:00:00,37.9,21.0,30.15,SE,135,6.5,12.3,50,0.00,,CLR,0.00,VWS V14.01,2013-02-07 17:00:00,
2013-02-07 12:03:00,36.1,19.3,30.18,SE,135,6.0,10.1,50,0.00,,CLR,0.00,VWS V14.01,2013-02-07 17:03:00,
2013-02-07 12:08:00,36.7,19.8,30.18,SSE,158,5.8,7.4,50,0.00,,CLR,0.00,VWS V14.01,2013-02-07 17:08:00,
2013-02-07 12:14:00,36.5,20.1,30.18,ESE,112,8.1,8.7,51,0.00,,CLR,0.00,VWS V14.01,2013-02-07 17:14:00,
2013-02-07 12:19:00,36.5,20.1,30.18,ESE,112,8.7,10.3,51,0.00,,CLR,0.00,VWS V14.01,2013-02-07 17:19:00,
2013-02-07 12:24:00,37.0,20.1,30.18,SE,135,6.3,10.3,50,0.00,,CLR,0.00,VWS V14.01,2013-02-07 17:24:00,
2013-02-07 12:29:00,37.6,20.6,30.18,SE,135,10.1,12.3,50,0.00,,CLR,0.00,VWS V14.01,2013-02-07 17:29:00,
2013-02-07 12:34:00,37.6,20.2,30.15,SE,135,9.2,12.3,49,0.00,,CLR,0.00,VWS V14.01,2013-02-07 17:34:00,
2013-02-07 12:39:00,37.4,20.0,30.15,SE,135,12.1,12.3,49,0.00,,CLR,0.00,VWS V14.01,2013-02-07 17:39:00,
2013-02-07 12:45:00,37.0,20.6,30.15,SSE,158,11.4,12.3,51,0.00,,CLR,0.00,VWS V14.01,2013-02-07 17:45:00,
2013-02-07 12:50:00,37.0,20.6,30.12,ESE,112,4.0,12.3,51,0.00,,CLR,0.00,VWS V14.01,2013-02-07 17:50:00,
2013-02-07 12:55:00,37.6,21.1,30.12,SE,135,5.6,12.3,51,0.00,,CLR,0.00,VWS V14.01,2013-02-07 17:55:00,
2013-02-07 13:00:00,37.4,20.5,30.12,SSE,158,10.5,12.3,50,0.00,,CLR,0.00,VWS V14.01,2013-02-07 18:00:00,
2013-02-07 13:05:00,37.6,20.6,30.15,SE,135,5.8,12.3,50,0.00,,CLR,0.00,VWS V14.01,2013-02-07 18:05:00,
2013-02-07 13:10:00,37.4,20.5,30.15,SE,135,5.6,9.8,50,0.00,,CLR,0.00,VWS V14.01,2013-02-07 18:10:00,
2013-02-07 13:15:00,36.9,20.0,30.15,SE,135,11.4,12.1,50,0.00,,CLR,0.00,VWS V14.01,2013-02-07 18:15:00,
2013-02-07 13:21:00,36.5,20.6,30.15,ESE,112,6.0,12.1,52,0.00,,CLR,0.00,VWS V14.01,2013-02-07 18:21:00,
2013-02-07 13:26:00,36.3,20.4,30.15,SE,135,7.4,12.1,52,0.00,,CLR,0.00,VWS V14.01,2013-02-07 18:26:00,
2013-02-07 13:31:00,36.1,20.2,30.15,SSE,158,6.5,12.5,52,0.00,,CLR,0.00,VWS V14.01,2013-02-07 18:31:00,
2013-02-07 13:36:00,36.3,19.9,30.15,SE,135,5.4,12.5,51,0.00,,CLR,0.00,VWS V14.01,2013-02-07 18:36:00,
2013-02-07 13:41:00,36.1,20.7,30.15,SSE,158,6.3,12.5,53,0.00,,CLR,0.00,VWS V14.01,2013-02-07 18:41:00,
2013-02-07 13:46:00,36.1,19.8,30.12,SE,135,10.1,12.5,51,0.00,,CLR,0.00,VWS V14.01,2013-02-07 18:46:00,
2013-02-07 13:51:00,36.5,20.1,30.12,SE,135,3.8,12.5,51,0.00,,CLR,0.00,VWS V14.01,2013-02-07 18:51:00,
2013-02-07 13:57:00,36.5,20.1,30.12,SSE,158,8.7,12.5,51,0.00,,CLR,0.00,VWS V14.01,2013-02-07 18:57:00,
2013-02-07 14:00:00,37.6,21.1,30.06,ESE,112,5.8,10.3,51,0.00,,CLR,0.00,VWS V14.01,2013-02-07 19:00:00,
2013-02-07 14:02:00,36.9,21.3,30.12,SE,135,6.7,12.5,53,0.00,,CLR,0.00,VWS V14.01,2013-02-07 19:02:00,
2013-02-07 14:07:00,37.4,21.4,30.12,ESE,112,4.9,12.5,52,0.00,,CLR,0.00,VWS V14.01,2013-02-07 19:07:00,
2013-02-07 14:12:00,37.9,21.4,30.12,ESE,112,3.8,8.7,51,0.00,,CLR,0.00,VWS V14.01,2013-02-07 19:12:00,
2013-02-07 14:14:00,37.9,21.4,30.09,SE,135,7.8,8.7,51,0.00,,CLR,0.00,VWS V14.01,2013-02-07 19:14:00,
2013-02-07 14:17:00,38.1,21.6,30.09,ESE,112,6.5,8.7,51,0.00,,CLR,0.00,VWS V14.01,2013-02-07 19:17:00,
2013-02-07 14:22:00,37.9,21.4,30.09,SE,135,7.8,8.7,51,0.00,,CLR,0.00,VWS V14.01,2013-02-07 19:22:00,
2013-02-07 14:27:00,37.6,20.6,30.09,ESE,112,7.8,8.7,50,0.00,,CLR,0.00,VWS V14.01,2013-02-07 19:27:00,
2013-02-07 14:33:00,37.6,21.6,30.09,ESE,112,5.4,10.3,52,0.00,,CLR,0.00,VWS V14.01,2013-02-07 19:33:00,
2013-02-07 14:38:00,37.4,20.5,30.09,ESE,112,9.4,10.3,50,0.00,,CLR,0.00,VWS V14.01,2013-02-07 19:38:00,
2013-02-07 14:43:00,37.6,20.6,30.09,ESE,112,8.7,10.3,50,0.00,,CLR,0.00,VWS V14.01,2013-02-07 19:43:00,
2013-02-07 14:48:00,37.6,21.1,30.09,ESE,112,5.8,10.3,51,0.00,,CLR,0.00,VWS V14.01,2013-02-07 19:48:00,
2013-02-07 14:53:00,37.8,21.7,30.09,SE,135,5.6,10.3,52,0.00,,CLR,0.00,VWS V14.01,2013-02-07 19:53:00,
2013-02-07 14:59:00,37.6,21.6,30.09,ESE,112,6.3,10.3,52,0.00,,CLR,0.00,VWS V14.01,2013-02-07 19:59:00,
2013-02-07 15:00:00,36.7,21.6,30.06,East,90,9.8,11.9,54,0.00,,CLR,0.00,VWS V14.01,2013-02-07 20:00:00,
2013-02-07 15:04:00,37.6,21.6,30.06,ESE,112,5.4,10.3,52,0.00,,CLR,0.00,VWS V14.01,2013-02-07 20:04:00,
2013-02-07 15:09:00,37.6,21.6,30.06,East,90,6.3,6.3,52,0.00,,CLR,0.00,VWS V14.01,2013-02-07 20:09:00,
2013-02-07 15:14:00,37.2,21.7,30.06,ESE,112,5.8,9.4,53,0.00,,CLR,0.00,VWS V14.01,2013-02-07 20:14:00,
2013-02-07 15:19:00,37.0,21.5,30.09,SE,135,7.2,9.4,53,0.00,,CLR,0.00,VWS V14.01,2013-02-07 20:19:00,
2013-02-07 15:24:00,37.0,22.0,30.09,SE,135,4.3,9.4,54,0.00,,CLR,0.00,VWS V14.01,2013-02-07 20:24:00,
2013-02-07 15:29:00,36.9,21.8,30.09,ESE,112,6.5,9.8,54,0.00,,CLR,0.00,VWS V14.01,2013-02-07 20:29:00,
2013-02-07 15:34:00,37.0,22.0,30.06,SE,135,5.6,9.8,54,0.00,,CLR,0.00,VWS V14.01,2013-02-07 20:34:00,
2013-02-07 15:39:00,37.4,22.7,30.06,ESE,112,3.8,9.8,55,0.00,,CLR,0.00,VWS V14.01,2013-02-07 20:39:00,
2013-02-07 15:45:00,37.8,23.1,30.06,ESE,112,5.8,9.8,55,0.00,,CLR,0.00,VWS V14.01,2013-02-07 20:45:00,
2013-02-07 15:50:00,37.8,23.1,30.06,East,90,4.0,9.8,55,0.00,,CLR,0.00,VWS V14.01,2013-02-07 20:50:00,
2013-02-07 15:55:00,37.4,21.9,30.06,ESE,112,7.4,11.9,53,0.00,,CLR,0.00,VWS V14.01,2013-02-07 20:55:00,
2013-02-07 16:00:00,37.0,21.5,30.06,East,90,8.1,11.9,53,0.00,,CLR,0.00,VWS V14.01,2013-02-07 21:00:00,
2013-02-07 16:05:00,36.9,22.6,30.06,SE,135,4.9,11.9,56,0.00,,CLR,0.00,VWS V14.01,2013-02-07 21:05:00,
2013-02-07 16:10:00,36.7,21.2,30.06,ESE,112,6.3,9.8,53,0.00,,CLR,0.00,VWS V14.01,2013-02-07 21:10:00,
2013-02-07 16:15:00,36.7,21.6,30.06,ESE,112,3.4,9.8,54,0.00,,CLR,0.00,VWS V14.01,2013-02-07 21:15:00,
2013-02-07 16:20:00,36.1,21.5,30.03,ESE,112,7.6,9.8,55,0.00,,CLR,0.00,VWS V14.01,2013-02-07 21:20:00,
2013-02-07 16:26:00,36.0,21.4,30.03,East,90,5.4,9.8,55,0.00,,CLR,0.00,VWS V14.01,2013-02-07 21:26:00,
2013-02-07 16:31:00,35.8,21.6,30.03,ESE,112,7.6,9.8,56,0.00,,CLR,0.00,VWS V14.01,2013-02-07 21:31:00,
2013-02-07 16:36:00,35.6,21.5,30.03,East,90,6.0,10.3,56,0.00,,CLR,0.00,VWS V14.01,2013-02-07 21:36:00,
2013-02-07 16:41:00,35.4,22.1,30.03,ESE,112,5.8,10.3,58,0.00,,CLR,0.00,VWS V14.01,2013-02-07 21:41:00,
2013-02-07 16:46:00,35.2,22.0,30.03,ESE,112,8.1,10.3,58,0.00,,CLR,0.00,VWS V14.01,2013-02-07 21:46:00,
2013-02-07 16:52:00,35.1,22.2,30.03,ENE,68,5.6,10.3,59,0.00,,CLR,0.00,VWS V14.01,2013-02-07 21:52:00,
2013-02-07 16:57:00,34.9,22.4,30.03,ESE,112,5.8,10.3,60,0.00,,CLR,0.00,VWS V14.01,2013-02-07 21:57:00,
2013-02-07 17:00:00,33.8,24.0,30.03,East,90,7.2,11.4,67,0.00,,CLR,0.00,VWS V14.01,2013-02-07 22:00:00,
2013-02-07 17:02:00,34.7,22.6,30.03,ESE,112,6.0,10.3,61,0.00,,CLR,0.00,VWS V14.01,2013-02-07 22:02:00,
2013-02-07 17:07:00,34.5,22.9,30.03,ESE,112,4.9,10.3,62,0.00,,CLR,0.00,VWS V14.01,2013-02-07 22:07:00,
2013-02-07 17:12:00,34.5,22.9,30.03,ESE,112,6.5,8.1,62,0.00,,CLR,0.00,VWS V14.01,2013-02-07 22:12:00,
2013-02-07 17:17:00,34.3,23.1,30.00,ESE,112,5.8,8.1,63,0.00,,CLR,0.00,VWS V14.01,2013-02-07 22:17:00,
2013-02-07 17:22:00,34.3,23.1,30.00,ESE,112,4.9,8.1,63,0.00,,CLR,0.00,VWS V14.01,2013-02-07 22:22:00,
2013-02-07 17:28:00,34.2,22.9,30.00,East,90,7.4,8.7,63,0.00,,CLR,0.00,VWS V14.01,2013-02-07 22:28:00,
2013-02-07 17:33:00,34.2,23.3,30.03,ESE,112,4.3,8.7,64,0.00,,CLR,0.00,VWS V14.01,2013-02-07 22:33:00,
2013-02-07 17:38:00,34.0,23.1,30.03,East,90,3.6,8.7,64,0.00,,CLR,0.00,VWS V14.01,2013-02-07 22:38:00,
2013-02-07 17:43:00,34.0,23.5,30.03,ESE,112,9.6,10.7,65,0.00,,CLR,0.00,VWS V14.01,2013-02-07 22:43:00,
2013-02-07 17:48:00,34.0,23.5,30.03,East,90,3.8,10.7,65,0.00,,CLR,0.00,VWS V14.01,2013-02-07 22:48:00,
2013-02-07 17:53:00,34.0,23.5,30.03,East,90,6.0,10.7,65,0.00,,CLR,0.00,VWS V14.01,2013-02-07 22:53:00,
2013-02-07 17:58:00,34.0,23.5,30.03,ESE,112,7.4,11.0,65,0.00,,CLR,0.00,VWS V14.01,2013-02-07 22:58:00,
2013-02-07 18:00:00,32.9,23.5,30.00,ESE,112,5.8,15.7,68,0.00,,CLR,0.00,VWS V14.01,2013-02-07 23:00:00,
2013-02-07 18:04:00,33.8,24.0,30.03,East,90,7.4,11.4,67,0.00,,CLR,0.00,VWS V14.01,2013-02-07 23:04:00,
2013-02-07 18:09:00,33.8,24.0,30.03,ESE,112,7.8,10.3,67,0.00,,CLR,0.00,VWS V14.01,2013-02-07 23:09:00,
2013-02-07 18:14:00,33.8,24.0,30.03,ESE,112,7.6,12.3,67,0.00,,CLR,0.00,VWS V14.01,2013-02-07 23:14:00,
2013-02-07 18:19:00,33.8,24.0,30.03,SE,135,5.4,12.3,67,0.00,,CLR,0.00,VWS V14.01,2013-02-07 23:19:00,
2013-02-07 18:24:00,33.6,24.5,30.03,ESE,112,6.5,12.3,69,0.00,,CLR,0.00,VWS V14.01,2013-02-07 23:24:00,
2013-02-07 18:29:00,33.4,24.4,30.03,ESE,112,10.3,15.7,69,0.00,,CLR,0.00,VWS V14.01,2013-02-07 23:29:00,
2013-02-07 18:34:00,33.3,24.5,30.00,ESE,112,10.5,15.7,70,0.00,,CLR,0.00,VWS V14.01,2013-02-07 23:34:00,
2013-02-07 18:40:00,33.3,24.9,30.00,ESE,112,8.5,15.7,71,0.00,,CLR,0.00,VWS V14.01,2013-02-07 23:40:00,
2013-02-07 18:45:00,33.3,24.5,30.00,East,90,8.7,15.7,70,0.00,,CLR,0.00,VWS V14.01,2013-02-07 23:45:00,
2013-02-07 18:50:00,33.1,24.7,29.97,ESE,112,7.8,15.7,71,0.00,,CLR,0.00,VWS V14.01,2013-02-07 23:50:00,
2013-02-07 18:55:00,33.1,24.4,29.97,ESE,112,10.7,15.7,70,0.00,,CLR,0.00,VWS V14.01,2013-02-07 23:55:00,
2013-02-07 19:00:00,33.1,24.4,29.97,ESE,112,8.1,15.7,70,0.00,,CLR,0.00,VWS V14.01,2013-02-08 00:00:00,
2013-02-07 19:06:00,32.9,23.9,30.00,ESE,112,7.6,15.7,69,0.00,,CLR,0.00,VWS V14.01,2013-02-08 00:06:00,
2013-02-07 19:11:00,32.7,23.3,30.00,ESE,112,10.7,10.7,68,0.00,,CLR,0.00,VWS V14.01,2013-02-08 00:11:00,
2013-02-07 19:17:00,32.7,23.3,30.00,ESE,112,6.3,10.7,68,0.00,,CLR,0.00,VWS V14.01,2013-02-08 00:17:00,
2013-02-07 19:22:00,32.7,22.6,30.00,ESE,112,5.4,10.7,66,0.00,,CLR,0.00,VWS V14.01,2013-02-08 00:22:00,
2013-02-07 19:27:00,32.5,22.5,30.00,ESE,112,5.4,10.7,66,0.00,,CLR,0.00,VWS V14.01,2013-02-08 00:27:00,
2013-02-07 19:33:00,32.5,22.5,30.00,ESE,112,4.0,10.7,66,0.00,,CLR,0.00,VWS V14.01,2013-02-08 00:33:00,
2013-02-07 19:38:00,32.5,22.1,30.00,ENE,68,7.6,10.7,65,0.00,,CLR,0.00,VWS V14.01,2013-02-08 00:38:00,
2013-02-07 19:43:00,32.5,22.1,30.00,East,90,6.5,10.7,65,0.00,,CLR,0.00,VWS V14.01,2013-02-08 00:43:00,
2013-02-07 19:48:00,32.5,22.1,30.00,ESE,112,5.4,10.7,65,0.00,,CLR,0.00,VWS V14.01,2013-02-08 00:48:00,
2013-02-07 19:53:00,32.5,21.7,30.00,ESE,112,5.8,10.7,64,0.00,,CLR,0.00,VWS V14.01,2013-02-08 00:53:00,
2013-02-07 19:58:00,32.4,21.9,30.00,ESE,112,4.3,10.7,65,0.00,,CLR,0.00,VWS V14.01,2013-02-08 00:58:00,
2013-02-07 20:03:00,32.4,21.6,30.03,East,90,7.8,10.7,64,0.00,,CLR,0.00,VWS V14.01,2013-02-08 01:03:00,
2013-02-07 20:08:00,32.4,20.8,30.03,SE,135,6.7,7.6,62,0.00,,CLR,0.00,VWS V14.01,2013-02-08 01:08:00,
2013-02-07 20:14:00,32.4,20.8,30.03,ESE,112,5.4,7.6,62,0.00,,CLR,0.00,VWS V14.01,2013-02-08 01:14:00,
2013-02-07 20:19:00,32.2,20.3,30.00,ESE,112,5.8,7.8,61,0.00,,CLR,0.00,VWS V14.01,2013-02-08 01:19:00,
2013-02-07 20:24:00,32.2,19.9,30.00,ESE,112,6.5,8.7,60,0.00,,CLR,0.00,VWS V14.01,2013-02-08 01:24:00,
2013-02-07 20:29:00,32.2,20.3,30.00,ESE,112,6.5,8.7,61,0.00,,CLR,0.00,VWS V14.01,2013-02-08 01:29:00,
2013-02-07 20:34:00,32.2,21.0,29.97,East,90,6.3,8.7,63,0.00,,CLR,0.00,VWS V14.01,2013-02-08 01:34:00,
2013-02-07 20:39:00,32.0,21.6,29.97,East,90,5.6,8.7,65,0.00,,CLR,0.00,VWS V14.01,2013-02-08 01:39:00,
2013-02-07 20:44:00,32.0,22.6,29.97,East,90,6.5,9.8,68,0.00,,CLR,0.00,VWS V14.01,2013-02-08 01:44:00,
2013-02-07 20:50:00,31.8,22.5,29.97,ESE,112,6.3,10.5,68,0.00,,CLR,0.00,VWS V14.01,2013-02-08 01:50:00,
2013-02-07 20:55:00,31.8,21.4,29.97,ESE,112,6.5,10.7,65,0.00,,CLR,0.00,VWS V14.01,2013-02-08 01:55:00,
2013-02-07 21:00:00,31.8,21.0,29.97,ESE,112,7.4,11.0,64,0.00,,CLR,0.00,VWS V14.01,2013-02-08 02:00:00,
2013-02-07 21:05:00,31.6,20.5,29.97,East,90,7.6,11.0,63,0.00,,CLR,0.00,VWS V14.01,2013-02-08 02:05:00,
2013-02-07 21:11:00,31.6,20.5,29.97,East,90,5.8,11.0,63,0.00,,CLR,0.00,VWS V14.01,2013-02-08 02:11:00,
2013-02-07 21:16:00,31.5,19.6,29.97,East,90,7.6,11.0,61,0.00,,CLR,0.00,VWS V14.01,2013-02-08 02:16:00,
2013-02-07 21:21:00,31.5,19.2,29.97,ESE,112,8.7,11.0,60,0.00,,CLR,0.00,VWS V14.01,2013-02-08 02:21:00,
2013-02-07 21:26:00,31.5,18.8,29.97,East,90,7.2,11.0,59,0.00,,CLR,0.00,VWS V14.01,2013-02-08 02:26:00,
2013-02-07 21:31:00,31.5,19.2,29.97,East,90,8.7,11.0,60,0.00,,CLR,0.00,VWS V14.01,2013-02-08 02:31:00,
2013-02-07 21:36:00,31.3,19.0,29.97,ESE,112,6.3,11.0,60,0.00,,CLR,0.00,VWS V14.01,2013-02-08 02:36:00,
2013-02-07 21:41:00,31.5,19.2,29.97,SE,135,7.6,11.0,60,0.00,,CLR,0.00,VWS V14.01,2013-02-08 02:41:00,
2013-02-07 21:46:00,31.5,19.2,29.97,East,90,6.5,12.3,60,0.00,,CLR,0.00,VWS V14.01,2013-02-08 02:46:00,
2013-02-07 21:52:00,31.5,19.2,29.97,ESE,112,7.6,12.3,60,0.00,,CLR,0.00,VWS V14.01,2013-02-08 02:52:00,
2013-02-07 21:57:00,31.5,18.8,29.97,East,90,5.8,12.3,59,0.00,,CLR,0.00,VWS V14.01,2013-02-08 02:57:00,
2013-02-07 22:00:00,28.4,25.3,29.94,East,90,8.1,14.8,88,0.00,,CLR,0.00,VWS V14.01,2013-02-08 03:00:00,
2013-02-07 22:02:00,31.3,18.6,29.97,ENE,68,10.5,12.3,59,0.00,,CLR,0.00,VWS V14.01,2013-02-08 03:02:00,
2013-02-07 22:07:00,31.3,18.6,29.97,ESE,112,8.1,14.1,59,0.00,,CLR,0.00,VWS V14.01,2013-02-08 03:07:00,
2013-02-07 22:12:00,31.1,20.0,29.97,East,90,14.8,14.8,63,0.00,,CLR,0.00,VWS V14.01,2013-02-08 03:12:00,
2013-02-07 22:18:00,30.9,20.9,29.97,East,90,8.1,14.8,66,0.00,,CLR,0.00,VWS V14.01,2013-02-08 03:18:00,
2013-02-07 22:23:00,30.6,20.6,29.97,ESE,112,3.8,14.8,66,0.00,,CLR,0.00,VWS V14.01,2013-02-08 03:23:00,
2013-02-07 22:28:00,30.4,19.7,29.97,ESE,112,3.1,14.8,64,0.00,,CLR,0.00,VWS V14.01,2013-02-08 03:28:00,
2013-02-07 22:33:00,30.4,19.7,29.97,ESE,112,4.0,14.8,64,0.00,,CLR,0.00,VWS V14.01,2013-02-08 03:33:00,
2013-02-07 22:38:00,30.2,20.6,29.97,ESE,112,4.3,14.8,67,0.00,,CLR,0.00,VWS V14.01,2013-02-08 03:38:00,
2013-02-07 22:44:00,29.8,21.9,29.97,SE,135,4.0,14.8,72,0.00,,CLR,0.00,VWS V14.01,2013-02-08 03:44:00,
2013-02-07 22:49:00,29.3,22.4,29.97,ENE,68,4.3,14.8,75,0.00,,CLR,0.00,VWS V14.01,2013-02-08 03:49:00,
2013-02-07 22:54:00,28.9,23.3,29.97,ENE,68,5.6,14.8,79,0.00,,CLR,0.00,VWS V14.01,2013-02-08 03:54:00,
2013-02-07 22:59:00,28.6,23.8,29.97,East,90,6.0,14.8,82,0.00,,CLR,0.00,VWS V14.01,2013-02-08 03:59:00,
2013-02-07 23:00:00,27.7,27.2,29.91,ENE,68,9.8,12.8,98,0.00,,CLR,0.00,VWS V14.01,2013-02-08 04:00:00,
2013-02-07 23:05:00,28.4,24.8,29.94,East,90,6.7,14.8,86,0.00,,CLR,0.00,VWS V14.01,2013-02-08 04:05:00,
2013-02-07 23:10:00,28.2,25.4,29.94,East,90,7.4,8.1,89,0.00,,CLR,0.00,VWS V14.01,2013-02-08 04:10:00,
2013-02-07 23:15:00,28.0,25.8,29.94,East,90,7.4,8.7,91,0.00,,CLR,0.00,VWS V14.01,2013-02-08 04:15:00,
2013-02-07 23:20:00,28.0,26.5,29.97,NE,45,8.1,8.7,94,0.00,,CLR,0.00,VWS V14.01,2013-02-08 04:20:00,
2013-02-07 23:25:00,27.9,26.9,29.97,ENE,68,7.4,8.7,96,0.00,,CLR,0.00,VWS V14.01,2013-02-08 04:25:00,
2013-02-07 23:30:00,27.9,27.1,29.97,ENE,68,6.7,10.5,97,0.00,,CLR,0.00,VWS V14.01,2013-02-08 04:30:00,
2013-02-07 23:35:00,27.9,27.4,29.94,ENE,68,10.1,10.5,98,0.00,,CLR,0.00,VWS V14.01,2013-02-08 04:35:00,
2013-02-07 23:40:00,27.9,27.4,29.94,ENE,68,8.5,11.0,98,0.00,,CLR,0.00,VWS V14.01,2013-02-08 04:40:00,
2013-02-07 23:45:00,27.9,27.4,29.94,ENE,68,8.5,11.0,98,0.00,,CLR,0.00,VWS V14.01,2013-02-08 04:45:00,
2013-02-07 23:51:00,27.9,27.4,29.94,ENE,68,6.9,11.0,98,0.00,,CLR,0.00,VWS V14.01,2013-02-08 04:51:00,
2013-02-07 23:56:00,27.9,27.4,29.94,ENE,68,8.1,11.0,98,0.00,,CLR,0.00,VWS V14.01,2013-02-08 04:56:00,